TAP1PL LPFR-LEMG
Flight info
| Callsign | TAP1PL |
|---|---|
| Flight time | 0h 49m |
| Altitude | 19000 |
| Route | DCT NIRAK Y136 NAPES/N0394F180 N747 SVL SVL2B |
| Aircraft | A320/M-SDE3FGHIRWY/LB1 |
Departure
| Time | 2026-05-05 18:13 |
|---|---|
| Airport | Faro - Gago Coutinho International Airport (LPFR) |
Arrival
| Time | 2026-05-05 19:02 |
|---|---|
| Airport | Málaga-Costa del Sol Airport (LEMG) |
| Time | Latitude | Longitude | Altitude | Speed | Heading |
|---|---|---|---|---|---|
| 2026-05-05 17:35 | 37.01904 | -7.96773 | 29 ft | 0 kts | 10° |
| 2026-05-05 17:40 | 37.01903 | -7.96773 | 29 ft | 0 kts | 10° |
| 2026-05-05 17:53 | 37.01902 | -7.96773 | 29 ft | 0 kts | 10° |
| 2026-05-05 18:03 | 37.01889 | -7.96776 | 27 ft | 6 kts | 10° |
| 2026-05-05 18:03 | 37.01869 | -7.96781 | 28 ft | 6 kts | 10° |
| 2026-05-05 18:04 | 37.01849 | -7.96785 | 29 ft | 7 kts | 10° |
| 2026-05-05 18:04 | 37.01833 | -7.96789 | 28 ft | 7 kts | 20° |
| 2026-05-05 18:04 | 37.01819 | -7.96798 | 27 ft | 7 kts | 84° |
| 2026-05-05 18:04 | 37.01823 | -7.96819 | 27 ft | 7 kts | 117° |
| 2026-05-05 18:05 | 37.01831 | -7.96839 | 27 ft | 6 kts | 101° |
| 2026-05-05 18:05 | 37.01831 | -7.96842 | 27 ft | 28 kts | 99° |
| 2026-05-05 18:05 | 37.01831 | -7.96843 | 27 ft | 0 kts | 99° |
| 2026-05-05 18:07 | 37.01825 | -7.96794 | 28 ft | 18 kts | 99° |
| 2026-05-05 18:07 | 37.01804 | -7.96633 | 29 ft | 18 kts | 100° |
| 2026-05-05 18:08 | 37.01738 | -7.96529 | 29 ft | 16 kts | 175° |
| 2026-05-05 18:08 | 37.01636 | -7.96532 | 29 ft | 13 kts | 153° |
| 2026-05-05 18:08 | 37.01605 | -7.96437 | 28 ft | 12 kts | 98° |
| 2026-05-05 18:08 | 37.01593 | -7.96340 | 28 ft | 11 kts | 100° |
| 2026-05-05 18:09 | 37.01579 | -7.96252 | 28 ft | 10 kts | 101° |
| 2026-05-05 18:09 | 37.01568 | -7.96170 | 28 ft | 10 kts | 100° |
| 2026-05-05 18:09 | 37.01552 | -7.96065 | 27 ft | 14 kts | 101° |
| 2026-05-05 18:09 | 37.01532 | -7.95924 | 27 ft | 18 kts | 100° |
| 2026-05-05 18:10 | 37.01450 | -7.95843 | 27 ft | 12 kts | 183° |
| 2026-05-05 18:10 | 37.01441 | -7.95845 | 27 ft | 0 kts | 190° |
| 2026-05-05 18:12 | 37.01436 | -7.95846 | 27 ft | 5 kts | 190° |
| 2026-05-05 18:12 | 37.01350 | -7.95900 | 27 ft | 14 kts | 256° |
| 2026-05-05 18:12 | 37.01365 | -7.96046 | 27 ft | 31 kts | 280° |
| 2026-05-05 18:13 | 37.01450 | -7.96630 | 30 ft | 101 kts | 280° |
| 2026-05-05 18:13 | 37.01614 | -7.97732 | 68 ft | 150 kts | 284° |
| 2026-05-05 18:13 | 37.01802 | -7.99027 | 739 ft | 152 kts | 284° |
| 2026-05-05 18:13 | 37.01988 | -8.00327 | 1452 ft | 154 kts | 285° |
| 2026-05-05 18:14 | 37.02197 | -8.01732 | 1800 ft | 175 kts | 286° |
| 2026-05-05 18:14 | 37.02437 | -8.03327 | 2114 ft | 197 kts | 284° |
| 2026-05-05 18:14 | 37.02693 | -8.05058 | 2751 ft | 205 kts | 284° |
| 2026-05-05 18:14 | 37.02952 | -8.06840 | 3556 ft | 211 kts | 284° |
| 2026-05-05 18:15 | 37.02883 | -8.08775 | 4019 ft | 243 kts | 251° |
| 2026-05-05 18:15 | 37.01773 | -8.10509 | 4466 ft | 273 kts | 213° |
| 2026-05-05 18:15 | 36.99933 | -8.11166 | 5210 ft | 284 kts | 177° |
| 2026-05-05 18:15 | 36.98066 | -8.10435 | 6107 ft | 285 kts | 143° |
| 2026-05-05 18:16 | 36.96809 | -8.08601 | 6968 ft | 284 kts | 113° |
| 2026-05-05 18:16 | 36.96136 | -8.06268 | 7795 ft | 287 kts | 104° |
| 2026-05-05 18:16 | 36.95563 | -8.03850 | 8643 ft | 293 kts | 105° |
| 2026-05-05 18:16 | 36.94982 | -8.01384 | 9467 ft | 299 kts | 105° |
| 2026-05-05 18:17 | 36.94390 | -7.98863 | 10233 ft | 307 kts | 106° |
| 2026-05-05 18:17 | 36.93624 | -7.96268 | 10549 ft | 331 kts | 114° |
| 2026-05-05 18:17 | 36.92581 | -7.93593 | 10797 ft | 354 kts | 118° |
| 2026-05-05 18:17 | 36.91356 | -7.90804 | 11058 ft | 375 kts | 120° |
| 2026-05-05 18:18 | 36.90054 | -7.87941 | 11633 ft | 383 kts | 120° |
| 2026-05-05 18:18 | 36.88738 | -7.85023 | 11942 ft | 387 kts | 120° |
| 2026-05-05 18:18 | 36.87443 | -7.82079 | 12020 ft | 387 kts | 119° |
| 2026-05-05 18:18 | 36.86174 | -7.79116 | 12025 ft | 386 kts | 118° |
| 2026-05-05 18:19 | 36.84941 | -7.76111 | 12258 ft | 393 kts | 113° |
| 2026-05-05 18:19 | 36.84213 | -7.72832 | 13074 ft | 394 kts | 97° |
| 2026-05-05 18:19 | 36.84229 | -7.69414 | 13823 ft | 396 kts | 80° |
| 2026-05-05 18:19 | 36.85015 | -7.66122 | 14448 ft | 397 kts | 63° |
| 2026-05-05 18:20 | 36.86515 | -7.63237 | 15072 ft | 397 kts | 46° |
| 2026-05-05 18:20 | 36.88500 | -7.60820 | 15693 ft | 399 kts | 41° |
| 2026-05-05 18:20 | 36.90538 | -7.58437 | 16299 ft | 403 kts | 41° |
| 2026-05-05 18:20 | 36.92598 | -7.56030 | 16888 ft | 407 kts | 41° |
| 2026-05-05 18:21 | 36.94677 | -7.53597 | 17454 ft | 411 kts | 41° |
| 2026-05-05 18:21 | 36.96776 | -7.51133 | 18015 ft | 416 kts | 41° |
| 2026-05-05 18:21 | 36.98893 | -7.48638 | 18534 ft | 420 kts | 41° |
| 2026-05-05 18:21 | 37.00998 | -7.46150 | 19022 ft | 423 kts | 41° |
| 2026-05-05 18:22 | 37.03281 | -7.43824 | 19504 ft | 424 kts | 31° |
| 2026-05-05 18:22 | 37.05856 | -7.42035 | 19984 ft | 424 kts | 20° |
| 2026-05-05 18:22 | 37.08644 | -7.40840 | 20471 ft | 423 kts | 10° |
| 2026-05-05 18:22 | 37.11546 | -7.40267 | 20954 ft | 422 kts | 0° |
| 2026-05-05 18:23 | 37.14483 | -7.40075 | 21429 ft | 426 kts | 4° |
| 2026-05-05 18:23 | 37.17323 | -7.38927 | 21866 ft | 438 kts | 26° |
| 2026-05-05 18:23 | 37.19697 | -7.36494 | 22304 ft | 448 kts | 48° |
| 2026-05-05 18:23 | 37.21367 | -7.33160 | 22736 ft | 456 kts | 65° |
| 2026-05-05 18:24 | 37.22297 | -7.29339 | 23159 ft | 461 kts | 81° |
| 2026-05-05 18:24 | 37.22380 | -7.25315 | 23555 ft | 464 kts | 96° |
| 2026-05-05 18:24 | 37.21968 | -7.21281 | 23867 ft | 467 kts | 98° |
| 2026-05-05 18:24 | 37.21491 | -7.17246 | 23965 ft | 471 kts | 99° |
| 2026-05-05 18:25 | 37.20959 | -7.13134 | 23988 ft | 482 kts | 100° |
| 2026-05-05 18:25 | 37.20780 | -7.11787 | 23987 ft | 484 kts | 100° |
| 2026-05-05 18:25 | 37.20059 | -7.04788 | 23984 ft | 488 kts | 91° |
| 2026-05-05 18:25 | 37.20207 | -7.00523 | 23985 ft | 488 kts | 82° |
| 2026-05-05 18:26 | 37.20848 | -6.96345 | 23986 ft | 488 kts | 76° |
| 2026-05-05 18:26 | 37.21643 | -6.92205 | 23979 ft | 488 kts | 76° |
| 2026-05-05 18:26 | 37.22430 | -6.88060 | 23982 ft | 489 kts | 76° |
| 2026-05-05 18:26 | 37.23210 | -6.83906 | 23980 ft | 489 kts | 76° |
| 2026-05-05 18:27 | 37.23982 | -6.79752 | 23980 ft | 489 kts | 76° |
| 2026-05-05 18:27 | 37.24751 | -6.75597 | 23977 ft | 489 kts | 76° |
| 2026-05-05 18:27 | 37.25519 | -6.71438 | 23978 ft | 489 kts | 76° |
| 2026-05-05 18:27 | 37.26290 | -6.67277 | 23976 ft | 489 kts | 76° |
| 2026-05-05 18:28 | 37.27832 | -6.58963 | 23947 ft | 492 kts | 76° |
| 2026-05-05 18:28 | 37.28610 | -6.54748 | 23770 ft | 497 kts | 76° |
| 2026-05-05 18:28 | 37.29389 | -6.50513 | 23588 ft | 497 kts | 76° |
| 2026-05-05 18:29 | 37.30165 | -6.46283 | 23380 ft | 496 kts | 76° |
| 2026-05-05 18:29 | 37.30936 | -6.42063 | 23159 ft | 495 kts | 76° |
| 2026-05-05 18:29 | 37.31692 | -6.37918 | 22934 ft | 493 kts | 76° |
| 2026-05-05 18:29 | 37.32454 | -6.33722 | 22733 ft | 492 kts | 76° |
| 2026-05-05 18:30 | 37.33213 | -6.29538 | 22508 ft | 490 kts | 76° |
| 2026-05-05 18:30 | 37.33970 | -6.25373 | 22296 ft | 489 kts | 76° |
| 2026-05-05 18:30 | 37.34727 | -6.21210 | 22078 ft | 487 kts | 76° |
| 2026-05-05 18:30 | 37.35475 | -6.17070 | 21870 ft | 485 kts | 76° |
| 2026-05-05 18:31 | 37.36216 | -6.12937 | 21655 ft | 484 kts | 76° |
| 2026-05-05 18:31 | 37.36954 | -6.08815 | 21449 ft | 482 kts | 76° |
| 2026-05-05 18:31 | 37.37688 | -6.04712 | 21246 ft | 481 kts | 76° |
| 2026-05-05 18:31 | 37.38422 | -6.00608 | 21039 ft | 479 kts | 76° |
| 2026-05-05 18:32 | 37.39156 | -5.96522 | 20837 ft | 478 kts | 76° |
| 2026-05-05 18:32 | 37.39888 | -5.92448 | 20638 ft | 477 kts | 76° |
| 2026-05-05 18:32 | 37.40370 | -5.89764 | 20515 ft | 476 kts | 76° |
| 2026-05-05 18:32 | 37.41084 | -5.85698 | 20308 ft | 475 kts | 78° |
| 2026-05-05 18:33 | 37.41402 | -5.81579 | 20110 ft | 473 kts | 90° |
| 2026-05-05 18:33 | 37.41106 | -5.77467 | 19918 ft | 471 kts | 101° |
| 2026-05-05 18:33 | 37.40223 | -5.73512 | 19719 ft | 469 kts | 112° |
| 2026-05-05 18:33 | 37.38237 | -5.68732 | 19465 ft | 463 kts | 127° |
| 2026-05-05 18:34 | 37.36952 | -5.66531 | 19336 ft | 462 kts | 129° |
| 2026-05-05 18:34 | 37.35023 | -5.63305 | 19147 ft | 461 kts | 129° |
| 2026-05-05 18:34 | 37.33097 | -5.60091 | 18955 ft | 459 kts | 129° |
| 2026-05-05 18:34 | 37.31175 | -5.56889 | 18772 ft | 458 kts | 129° |
| 2026-05-05 18:35 | 37.29263 | -5.53705 | 18590 ft | 456 kts | 129° |
| 2026-05-05 18:35 | 37.27378 | -5.50564 | 18402 ft | 455 kts | 129° |
| 2026-05-05 18:35 | 37.25473 | -5.47393 | 18212 ft | 454 kts | 129° |
| 2026-05-05 18:35 | 37.23573 | -5.44238 | 17997 ft | 452 kts | 129° |
| 2026-05-05 18:36 | 37.21684 | -5.41108 | 17570 ft | 446 kts | 129° |
| 2026-05-05 18:36 | 37.19813 | -5.38012 | 17157 ft | 445 kts | 129° |
| 2026-05-05 18:36 | 37.17944 | -5.34919 | 16893 ft | 444 kts | 129° |
| 2026-05-05 18:36 | 37.16084 | -5.31840 | 16643 ft | 443 kts | 129° |
| 2026-05-05 18:37 | 37.14225 | -5.28764 | 16379 ft | 440 kts | 129° |
| 2026-05-05 18:37 | 37.12374 | -5.25711 | 16181 ft | 440 kts | 129° |
| 2026-05-05 18:37 | 37.10523 | -5.22664 | 15956 ft | 438 kts | 129° |
| 2026-05-05 18:37 | 37.08682 | -5.19635 | 15549 ft | 434 kts | 129° |
| 2026-05-05 18:38 | 37.06877 | -5.16662 | 15132 ft | 424 kts | 129° |
| 2026-05-05 18:38 | 37.05132 | -5.13787 | 14722 ft | 415 kts | 129° |
| 2026-05-05 18:38 | 37.03399 | -5.10936 | 14316 ft | 407 kts | 129° |
| 2026-05-05 18:38 | 37.01693 | -5.08136 | 13910 ft | 400 kts | 129° |
| 2026-05-05 18:39 | 37.00016 | -5.05384 | 13470 ft | 394 kts | 129° |
| 2026-05-05 18:39 | 36.98367 | -5.02678 | 13027 ft | 388 kts | 129° |
| 2026-05-05 18:39 | 36.96742 | -5.00017 | 12597 ft | 382 kts | 129° |
| 2026-05-05 18:39 | 36.95142 | -4.97404 | 12160 ft | 376 kts | 129° |
| 2026-05-05 18:40 | 36.93552 | -4.94810 | 11737 ft | 386 kts | 129° |
| 2026-05-05 18:40 | 36.91872 | -4.92072 | 11305 ft | 403 kts | 129° |
| 2026-05-05 18:40 | 36.90453 | -4.89760 | 10955 ft | 402 kts | 129° |
| 2026-05-05 18:40 | 36.88932 | -4.87278 | 10583 ft | 392 kts | 129° |
| 2026-05-05 18:41 | 36.87312 | -4.84637 | 10181 ft | 383 kts | 129° |
| 2026-05-05 18:41 | 36.85709 | -4.82023 | 9767 ft | 375 kts | 129° |
| 2026-05-05 18:41 | 36.84137 | -4.79461 | 9319 ft | 368 kts | 129° |
| 2026-05-05 18:41 | 36.82595 | -4.76954 | 8865 ft | 360 kts | 128° |
| 2026-05-05 18:42 | 36.81083 | -4.74500 | 8437 ft | 354 kts | 128° |
| 2026-05-05 18:42 | 36.79594 | -4.72084 | 8005 ft | 348 kts | 129° |
| 2026-05-05 18:42 | 36.77948 | -4.69917 | 7582 ft | 341 kts | 136° |
| 2026-05-05 18:42 | 36.76254 | -4.67873 | 7160 ft | 335 kts | 136° |
| 2026-05-05 18:43 | 36.74587 | -4.65865 | 6743 ft | 331 kts | 136° |
| 2026-05-05 18:43 | 36.72938 | -4.63884 | 6339 ft | 327 kts | 136° |
| 2026-05-05 18:43 | 36.71316 | -4.61937 | 6032 ft | 319 kts | 136° |
| 2026-05-05 18:43 | 36.69747 | -4.60054 | 5803 ft | 309 kts | 136° |
| 2026-05-05 18:44 | 36.68205 | -4.58204 | 5345 ft | 306 kts | 136° |
| 2026-05-05 18:44 | 36.66675 | -4.56369 | 4898 ft | 305 kts | 135° |
| 2026-05-05 18:44 | 36.65149 | -4.54538 | 4447 ft | 305 kts | 135° |
| 2026-05-05 18:44 | 36.63623 | -4.52709 | 3977 ft | 303 kts | 135° |
| 2026-05-05 18:45 | 36.62111 | -4.50901 | 3536 ft | 300 kts | 136° |
| 2026-05-05 18:45 | 36.60607 | -4.49104 | 3111 ft | 298 kts | 136° |
| 2026-05-05 18:45 | 36.59147 | -4.47359 | 2993 ft | 283 kts | 135° |
| 2026-05-05 18:45 | 36.57775 | -4.45721 | 3003 ft | 264 kts | 135° |
| 2026-05-05 18:46 | 36.56500 | -4.44198 | 3003 ft | 253 kts | 135° |
| 2026-05-05 18:46 | 36.55230 | -4.42681 | 3005 ft | 253 kts | 135° |
| 2026-05-05 18:46 | 36.53963 | -4.41169 | 3008 ft | 253 kts | 135° |
| 2026-05-05 18:46 | 36.52695 | -4.39657 | 3006 ft | 252 kts | 136° |
| 2026-05-05 18:47 | 36.51431 | -4.38148 | 3006 ft | 252 kts | 136° |
| 2026-05-05 18:47 | 36.50163 | -4.36634 | 3005 ft | 252 kts | 136° |
| 2026-05-05 18:47 | 36.48892 | -4.35122 | 2932 ft | 252 kts | 135° |
| 2026-05-05 18:47 | 36.47726 | -4.33524 | 2804 ft | 246 kts | 120° |
| 2026-05-05 18:48 | 36.47149 | -4.31582 | 2680 ft | 237 kts | 92° |
| 2026-05-05 18:48 | 36.47270 | -4.29588 | 2563 ft | 229 kts | 68° |
| 2026-05-05 18:48 | 36.48043 | -4.27930 | 2439 ft | 218 kts | 36° |
| 2026-05-05 18:48 | 36.49335 | -4.27079 | 2314 ft | 209 kts | 6° |
| 2026-05-05 18:49 | 36.50743 | -4.27186 | 2188 ft | 201 kts | 338° |
| 2026-05-05 18:49 | 36.51889 | -4.28147 | 2082 ft | 201 kts | 312° |
| 2026-05-05 18:49 | 36.52825 | -4.29448 | 1998 ft | 202 kts | 311° |
| 2026-05-05 18:49 | 36.53746 | -4.30736 | 2004 ft | 202 kts | 311° |
| 2026-05-05 18:50 | 36.54684 | -4.32043 | 2008 ft | 203 kts | 311° |
| 2026-05-05 18:50 | 36.55625 | -4.33353 | 2003 ft | 203 kts | 311° |
| 2026-05-05 18:50 | 36.56569 | -4.34667 | 2007 ft | 203 kts | 312° |
| 2026-05-05 18:50 | 36.57504 | -4.35969 | 2003 ft | 197 kts | 312° |
| 2026-05-05 18:51 | 36.58388 | -4.37200 | 2001 ft | 184 kts | 312° |
| 2026-05-05 18:51 | 36.59218 | -4.38357 | 2003 ft | 176 kts | 312° |
| 2026-05-05 18:51 | 36.60033 | -4.39492 | 1898 ft | 175 kts | 312° |
| 2026-05-05 18:51 | 36.60840 | -4.40618 | 1724 ft | 174 kts | 312° |
| 2026-05-05 18:52 | 36.61641 | -4.41736 | 1525 ft | 171 kts | 312° |
| 2026-05-05 18:52 | 36.62425 | -4.42829 | 1288 ft | 167 kts | 311° |
| 2026-05-05 18:52 | 36.63183 | -4.43887 | 1057 ft | 159 kts | 310° |
| 2026-05-05 18:52 | 36.63900 | -4.44889 | 848 ft | 152 kts | 310° |
| 2026-05-05 18:53 | 36.64581 | -4.45839 | 659 ft | 140 kts | 311° |
| 2026-05-05 18:53 | 36.65206 | -4.46713 | 467 ft | 134 kts | 311° |
| 2026-05-05 18:53 | 36.65910 | -4.47696 | 841 ft | 159 kts | 312° |
| 2026-05-05 18:53 | 36.66654 | -4.48771 | 1699 ft | 175 kts | 308° |
| 2026-05-05 18:54 | 36.67126 | -4.50212 | 1948 ft | 191 kts | 281° |
| 2026-05-05 18:54 | 36.66898 | -4.51877 | 2000 ft | 205 kts | 245° |
| 2026-05-05 18:54 | 36.65840 | -4.53104 | 2163 ft | 220 kts | 207° |
| 2026-05-05 18:54 | 36.64297 | -4.53560 | 2791 ft | 229 kts | 194° |
| 2026-05-05 18:55 | 36.62702 | -4.53666 | 2984 ft | 232 kts | 169° |
| 2026-05-05 18:55 | 36.61227 | -4.52908 | 2993 ft | 228 kts | 147° |
| 2026-05-05 18:55 | 36.59945 | -4.51745 | 3006 ft | 228 kts | 141° |
| 2026-05-05 18:55 | 36.58704 | -4.50518 | 2983 ft | 227 kts | 141° |
| 2026-05-05 18:56 | 36.57476 | -4.49289 | 2726 ft | 227 kts | 140° |
| 2026-05-05 18:56 | 36.56246 | -4.48056 | 2471 ft | 227 kts | 140° |
| 2026-05-05 18:56 | 36.55032 | -4.46803 | 2216 ft | 226 kts | 135° |
| 2026-05-05 18:56 | 36.53946 | -4.45389 | 2049 ft | 226 kts | 131° |
| 2026-05-05 18:57 | 36.52903 | -4.43929 | 2001 ft | 226 kts | 130° |
| 2026-05-05 18:57 | 36.52033 | -4.42317 | 2005 ft | 225 kts | 108° |
| 2026-05-05 18:57 | 36.51829 | -4.40455 | 2011 ft | 219 kts | 79° |
| 2026-05-05 18:57 | 36.52311 | -4.38752 | 2001 ft | 200 kts | 52° |
| 2026-05-05 18:58 | 36.53191 | -4.37473 | 2005 ft | 191 kts | 33° |
| 2026-05-05 18:58 | 36.54291 | -4.36641 | 2004 ft | 182 kts | 15° |
| 2026-05-05 18:58 | 36.55496 | -4.36272 | 2009 ft | 178 kts | 0° |
| 2026-05-05 18:58 | 36.56713 | -4.36357 | 2010 ft | 174 kts | 345° |
| 2026-05-05 18:59 | 36.57833 | -4.36865 | 2002 ft | 172 kts | 329° |
| 2026-05-05 18:59 | 36.58785 | -4.37759 | 2009 ft | 172 kts | 313° |
| 2026-05-05 18:59 | 36.59588 | -4.38873 | 1983 ft | 173 kts | 312° |
| 2026-05-05 18:59 | 36.60392 | -4.39993 | 1831 ft | 173 kts | 312° |
| 2026-05-05 19:00 | 36.61191 | -4.41107 | 1621 ft | 170 kts | 312° |
| 2026-05-05 19:00 | 36.61964 | -4.42187 | 1413 ft | 164 kts | 311° |
| 2026-05-05 19:00 | 36.62712 | -4.43230 | 1189 ft | 157 kts | 310° |
| 2026-05-05 19:00 | 36.63426 | -4.44227 | 992 ft | 152 kts | 310° |
| 2026-05-05 19:01 | 36.64116 | -4.45191 | 803 ft | 143 kts | 311° |
| 2026-05-05 19:01 | 36.64754 | -4.46082 | 617 ft | 135 kts | 311° |
| 2026-05-05 19:01 | 36.65370 | -4.46948 | 428 ft | 133 kts | 311° |
| 2026-05-05 19:01 | 36.65981 | -4.47803 | 255 ft | 132 kts | 311° |
| 2026-05-05 19:02 | 36.66591 | -4.48656 | 83 ft | 134 kts | 313° |
| 2026-05-05 19:02 | 36.67167 | -4.49458 | 35 ft | 102 kts | 312° |
| 2026-05-05 19:02 | 36.67525 | -4.49960 | 36 ft | 53 kts | 312° |
| 2026-05-05 19:02 | 36.67762 | -4.50202 | 36 ft | 41 kts | 336° |
| 2026-05-05 19:03 | 36.67818 | -4.50227 | 36 ft | 0 kts | 342° |